KTTD/TTD METAR and TAF weather

Enter ICAO airport designator
Station Type Date Time Source
KTTD METAR 2021/05/15 01:53 UTC NOAA

KTTD 150153Z AUTO VRB05KT 10SM CLR 24/09 A2997 RMK AO2 SLP148 T02440089


Station Type Date Time Source
KTTD Decoded METAR 2021/05/15 01:53 UTC NOAA

PORTLAND-TROUTDALE AIRPORT, OR, United States (KTTD) 45-33N 122-25W 14M
May 14, 2021 - 09:53 PM EDT / 2021.05.15 0153 UTC
Wind: Variable at 6 MPH (5 KT):0
Visibility: 10 mile(s):0
Sky conditions: clear
Temperature: 75.9 F (24.4 C)
Dew Point: 48.0 F (8.9 C)
Relative Humidity: 37%
Pressure (altimeter): 29.97 in. Hg (1014 hPa)
ob: KTTD 150153Z AUTO VRB05KT 10SM CLR 24/09 A2997 RMK AO2 SLP148 T02440089
cycle: 2

Station Type Date Time Source
KTTD TAF 2021/05/14 18:21 UTC NOAA

TAF KTTD 141720Z 1418/1518 VRB04KT P6SM SKC
FM142100 30008KT P6SM SKC
FM150600 VRB04KT P6SM FEW250

Example: see airport list